WSSLWMKP

Guest
Details From WSSL - Seletar
To WMKP - Penang Intl
Flight Number -
Tags decoded
Created
Modified
Stats Distance 327 nm / 605 km
Max Altitude 0 ft / 0 m
Waypoints 3
Social Downloads 1
Likes 0
Share VATSIM

Download

Looking for another format? Having issues loading an existing format? Contact us
Advertisement - Login to hide

Notes

Requested: WSSL W543 WMKM 2546 A457 WMKP Unmatched points: W543 2546 A457

Route

WSSL WMKM WMKP

ID Type Via Altitude Latitude Longitude Leg Dist Tot Dist Heading (true) Name
O WSSL APT - 0 ft / 0 m 1.41643˚ 103.86730˚ - 0 nm - Seletar
WMKM APT - 0 ft / 0 m 2.26336˚ 102.25155˚ 109 nm 109 nm 298° / 298° Malacca
O WMKP APT - 0 ft / 0 m 5.29714˚ 100.27687˚ 217 nm 326 nm 327° / 327° Penang Intl

Altitude Profile

Advertisement - Login to hide

Weather


0- 5 10 15 20 25 30 35+ Temperature / ° C

Clouds and Precipitation
Forecast for 2018-05-21 12:00 UTC. Updated 2 hours ago

Ground ~20,000 ft ~40,000 ft Winds

WSSL

Details ICAO WSSL (XSP)
Name Seletar
Region Singapore
Timezone Asia/Singapore (UTC+8.0)
Stats Elevation 36 ft / 11 m (AMSL)
Location 1.416427° 103.867299°
Runways 1
Magnetic Variation 0.216° E

METAR

WSSL 211300Z VRB01KT 9999 FEW015 SCT018TCU 29/25 Q1008 RMK 1230Z Q1008

Decode

TAF

TAF AMD WSSL 210800Z 2108/2212 19007KT 9999 FEW018CB SCT020

Decode

Departure Runways

ID Width Length Bearing (true) Bearing (mag) Surface Threshold Offset Overrun Length
03 151 ft / 46 m 5,243 ft / 1,598 m 33.15° 32.93° Asphalt 0 ft / 0 m 197 ft / 60 m
21 151 ft / 46 m 5,243 ft / 1,598 m 213.15° 212.93° Asphalt 0 ft / 0 m 197 ft / 60 m

WMKP

Details ICAO WMKP (PEN)
Name Penang Intl
Region Malaysia (Peninsular Malaysia)
Timezone Asia/Kuala_Lumpur (UTC+8.0)
Stats Elevation 11 ft / 3 m (AMSL)
Location 5.297141° 100.276865°
Runways 1
Magnetic Variation 0.200° W

METAR

WMKP 211330Z VRB02KT 9000 FEW025 SCT140 BKN270 28/26 Q1007 NOSIG

Decode

TAF

TAF WMKP 211100Z 2112/2212 VRB03KT 9000 FEW020 SCT140 BKN270 PROB30 TEMPO 2112/2114 6000 -TSRA FEW010 FEW017CB SCT024 BKN260 TEMPO 2201/2204 19005KT 5000 TSRA FEW012 FEW017CB SCT023 BECMG 2204/2206 28008KT

Decode

Destination Runways

ID Width Length Bearing (true) Bearing (mag) Surface Threshold Offset Overrun Length
04 150 ft / 46 m 11,042 ft / 3,366 m 42.02° 42.22° Asphalt 0 ft / 0 m 205 ft / 62 m
22 150 ft / 46 m 11,042 ft / 3,366 m 222.02° 222.22° Asphalt 0 ft / 0 m 205 ft / 62 m

Approach Navaids

Runway Type Ident Frequency Range Bearing (true) Bearing (mag) Slope Elevation
04 Localiser IPG 109.90 MHz 18 nm / 33 km 42.88° 43.08° - 12 ft / 4 m (AMSL)
04 Glidescope IPG 109.90 MHz 10 nm / 19 km 42.02° 42.22° 3.00° 11 ft / 3 m (AMSL)
04 DME IPG 109.90 MHz 18 nm / 33 km - - - 11 ft / 3 m (AMSL)

Popular Alternatives